Weather at Langlade Memorial Hospital Heliport

Public forecast

Using degrees Fahrenheit for public forecast. Weather courtesy of forecast.io.

Closest aviation weather report (METAR) to Langlade Memorial Hospital Heliport

Closest report is Langlade County Airport, 1.4 nm (2.7 km) ENE. Retrieved 2021/06/13 16:35 UTC (17 minutes ago):

KAIG 131635Z AUTO 27010KT 10SM CLR 24/12 A3005 RMK AO2 T02410121

Closest aviation forecast (TAF) to Langlade Memorial Hospital Heliport

Closest forecast is Wausau Downtown Airport, 24.4 nm (45.2 km) WSW. Retrieved 2021/06/13 12:27 UTC (4 hours ago):

TAF KAUW 131125Z 1312/1412 30006KT P6SM SKC FM131600 29007G15KT P6SM SKC FM140000 26005KT P6SM SCT090 FM140400 04009KT P6SM SCT040 BKN070 FM140700 36004KT P6SM SKC